ORBI/SDA METAR and TAF weather

Enter ICAO airport designator
Station Type Date Time Source
ORBI METAR 2022/06/30 02:00 UTC NOAA

ORBI 300200Z 34006KT CAVOK 26/07 Q0999 NOSIG


Station Type Date Time Source
ORBI Decoded METAR 2022/06/30 02:00 UTC NOAA

Station name not available
Jun 29, 2022 - 10:00 PM EDT / 2022.06.30 0200 UTC
Wind: from the NNW (340 degrees) at 7 MPH (6 KT):0
Visibility: greater than 7 mile(s):0
Temperature: 78 F (26 C)
Dew Point: 44 F (7 C)
Relative Humidity: 29%
Pressure (altimeter): 29.50 in. Hg (0999 hPa)
ob: ORBI 300200Z 34006KT CAVOK 26/07 Q0999 NOSIG
cycle: 2

Station Type Date Time Source
ORBI TAF 2022/06/29 18:09 UTC NOAA

TAF TAF ORBI 291700Z 2918/3018 30010KT 8000 NSC

Example: see airport list